createdAt,value
2019-06-26T00:00:26.337Z,70.05
2019-06-26T00:01:26.319Z,70.05
2019-06-26T00:02:26.295Z,69.95
2019-06-26T00:03:26.336Z,69.85
2019-06-26T00:04:26.294Z,69.95
2019-06-26T00:05:26.270Z,69.85
2019-06-26T00:06:26.256Z,70.05
2019-06-26T00:07:26.253Z,70.05
2019-06-26T00:08:26.251Z,70.25
2019-06-26T00:09:26.250Z,70.15
2019-06-26T00:10:26.218Z,70.25
2019-06-26T00:11:26.204Z,70.45
2019-06-26T00:12:26.200Z,70.35
2019-06-26T00:13:27.044Z,70.54
2019-06-26T00:14:26.186Z,70.54
2019-06-26T00:15:26.166Z,70.65
2019-06-26T00:16:26.186Z,70.65
2019-06-26T00:17:26.138Z,70.75
2019-06-26T00:18:26.143Z,70.84
2019-06-26T00:19:26.109Z,70.98
2019-06-26T00:20:26.108Z,71.08
2019-06-26T00:21:26.108Z,71.28
2019-06-26T00:22:26.111Z,71.47
2019-06-26T00:23:26.089Z,71.47
2019-06-26T00:24:26.065Z,71.57
2019-06-26T00:25:26.047Z,71.67
2019-06-26T00:26:26.088Z,72.00
2019-06-26T00:27:26.041Z,72.10
2019-06-26T00:28:26.032Z,72.20
2019-06-26T00:29:26.019Z,72.30
2019-06-26T00:30:25.998Z,72.30
2019-06-26T00:31:25.989Z,72.30
2019-06-26T00:32:26.000Z,72.20
2019-06-26T00:33:25.980Z,72.50
2019-06-26T00:34:25.971Z,72.40
2019-06-26T00:35:25.950Z,72.30
2019-06-26T00:36:25.949Z,72.30
2019-06-26T00:37:25.963Z,72.40
2019-06-26T00:38:25.917Z,72.40
2019-06-26T00:39:25.909Z,72.60
2019-06-26T00:40:25.892Z,72.60
2019-06-26T00:41:25.893Z,72.83
2019-06-26T00:42:25.868Z,72.93
2019-06-26T00:43:38.503Z,73.03
2019-06-26T00:44:26.911Z,73.23
2019-06-26T00:45:25.842Z,73.03
2019-06-26T00:46:25.837Z,73.33
2019-06-26T00:47:25.845Z,73.36
2019-06-26T00:48:25.813Z,73.56
2019-06-26T00:49:25.807Z,73.96
2019-06-26T00:50:25.793Z,73.76
2019-06-26T00:51:25.778Z,73.86
2019-06-26T00:52:25.758Z,73.96
2019-06-26T00:53:25.762Z,73.86
2019-06-26T00:54:25.762Z,73.86
2019-06-26T00:55:25.730Z,73.86
2019-06-26T00:56:25.714Z,73.76
2019-06-26T00:57:25.719Z,73.56
2019-06-26T00:58:25.702Z,73.56
2019-06-26T00:59:25.738Z,73.86
2019-06-26T01:00:25.694Z,73.56
2019-06-26T01:01:25.663Z,73.76
2019-06-26T01:02:25.661Z,73.76
2019-06-26T01:03:25.652Z,73.99
2019-06-26T01:04:25.632Z,73.99
2019-06-26T01:05:25.641Z,73.99
2019-06-26T01:06:25.619Z,73.90
2019-06-26T01:07:25.592Z,73.80
2019-06-26T01:08:25.602Z,73.80
2019-06-26T01:09:25.591Z,73.80
2019-06-26T01:10:25.573Z,73.90
2019-06-26T01:11:25.573Z,73.90
2019-06-26T01:12:25.556Z,73.99
2019-06-26T01:13:25.540Z,74.09
2019-06-26T01:14:25.532Z,74.19
2019-06-26T01:15:25.510Z,74.19
2019-06-26T01:16:25.512Z,74.73
2019-06-26T01:17:25.504Z,74.73
2019-06-26T01:18:25.485Z,74.82
2019-06-26T01:19:25.486Z,74.93
2019-06-26T01:20:25.462Z,75.12
2019-06-26T01:21:25.483Z,74.93
2019-06-26T01:22:25.446Z,75.42
2019-06-26T01:23:25.464Z,75.26
2019-06-26T01:24:25.423Z,75.46
2019-06-26T01:25:25.413Z,75.46
2019-06-26T01:26:25.417Z,75.85
2019-06-26T01:27:25.396Z,75.85
2019-06-26T01:28:25.371Z,75.85
2019-06-26T01:29:25.370Z,76.06
2019-06-26T01:30:25.354Z,76.79
2019-06-26T01:31:25.385Z,76.59
2019-06-26T01:32:25.335Z,77.19
2019-06-26T01:33:25.326Z,77.58
2019-06-26T01:34:25.373Z,78.42
2019-06-26T01:35:25.305Z,78.81
2019-06-26T01:36:25.296Z,79.05
2019-06-26T01:37:25.293Z,79.55
2019-06-26T01:38:25.304Z,79.65
2019-06-26T01:39:25.269Z,79.79
2019-06-26T01:40:25.243Z,80.48
2019-06-26T01:41:25.245Z,81.08
2019-06-26T01:42:25.223Z,81.28
2019-06-26T01:43:25.225Z,81.52
2019-06-26T01:44:25.237Z,81.52
2019-06-26T01:45:25.248Z,81.92
2019-06-26T01:46:25.185Z,81.82
2019-06-26T01:47:25.172Z,82.32
2019-06-26T01:48:25.186Z,82.26
2019-06-26T01:49:25.158Z,82.56
2019-06-26T01:50:25.137Z,82.65
2019-06-26T01:51:25.131Z,83.35
2019-06-26T01:52:25.113Z,82.86
2019-06-26T01:53:25.135Z,83.05
2019-06-26T01:54:25.111Z,82.86
2019-06-26T01:55:25.096Z,83.19
2019-06-26T01:56:25.090Z,83.49
2019-06-26T01:57:25.073Z,83.09
2019-06-26T01:58:25.059Z,82.69
2019-06-26T01:59:25.067Z,82.29
2019-06-26T02:00:25.070Z,82.39
2019-06-26T02:01:25.025Z,82.39
2019-06-26T02:02:25.017Z,82.29
2019-06-26T02:03:25.006Z,81.85
2019-06-26T02:04:25.037Z,81.36
2019-06-26T02:05:24.989Z,82.06
2019-06-26T02:06:24.967Z,81.66
2019-06-26T02:07:24.970Z,82.15
2019-06-26T02:08:24.949Z,82.35
2019-06-26T02:09:24.969Z,81.66
2019-06-26T02:10:24.936Z,82.15
2019-06-26T02:11:24.927Z,82.75
2019-06-26T02:12:24.922Z,82.50
2019-06-26T02:13:24.902Z,82.50
2019-06-26T02:14:30.950Z,83.19
2019-06-26T02:15:25.876Z,83.00
2019-06-26T02:16:24.887Z,82.89
2019-06-26T02:17:24.856Z,83.09
2019-06-26T02:18:24.849Z,83.39
2019-06-26T02:19:24.835Z,83.29
2019-06-26T02:20:24.826Z,83.73
2019-06-26T02:21:24.838Z,83.63
2019-06-26T02:22:24.834Z,83.43
2019-06-26T02:23:24.786Z,83.83
2019-06-26T02:24:24.793Z,83.73
2019-06-26T02:25:24.806Z,83.73
2019-06-26T02:26:24.786Z,84.53
2019-06-26T02:27:24.746Z,84.43
2019-06-26T02:28:24.739Z,84.13
2019-06-26T02:29:24.727Z,84.43
2019-06-26T02:30:24.731Z,84.83
2019-06-26T02:31:24.712Z,84.63
2019-06-26T02:32:24.713Z,84.77
2019-06-26T02:33:24.736Z,85.07
2019-06-26T02:34:24.683Z,85.07
2019-06-26T02:35:24.656Z,85.27
2019-06-26T02:36:24.668Z,85.17
2019-06-26T02:37:24.658Z,85.77
2019-06-26T02:38:24.650Z,85.87
2019-06-26T02:39:24.629Z,85.87
2019-06-26T02:40:24.605Z,85.71
2019-06-26T02:41:24.610Z,85.91
2019-06-26T02:42:24.599Z,86.41
2019-06-26T02:43:24.590Z,86.31
2019-06-26T02:44:24.581Z,86.21
2019-06-26T02:45:24.550Z,86.41
2019-06-26T02:46:24.558Z,86.61
2019-06-26T02:47:24.573Z,86.21
2019-06-26T02:48:24.566Z,86.51
2019-06-26T02:49:24.523Z,86.51
2019-06-26T02:50:24.506Z,86.91
2019-06-26T02:51:24.497Z,86.81
2019-06-26T02:52:24.491Z,87.01
2019-06-26T02:53:24.480Z,87.11
2019-06-26T02:54:24.490Z,86.91
2019-06-26T02:55:24.447Z,86.65
2019-06-26T02:56:24.439Z,86.61
2019-06-26T02:57:24.423Z,86.81
2019-06-26T02:58:24.419Z,86.71
2019-06-26T02:59:24.417Z,86.41
2019-06-26T03:00:24.397Z,85.71
2019-06-26T03:01:24.412Z,86.11
2019-06-26T03:02:24.398Z,86.11
2019-06-26T03:03:24.362Z,86.11
2019-06-26T03:04:24.385Z,86.31
2019-06-26T03:05:24.342Z,86.11
2019-06-26T03:06:24.341Z,86.21
2019-06-26T03:07:24.354Z,85.91
2019-06-26T03:08:24.339Z,86.11
2019-06-26T03:09:24.302Z,86.21
2019-06-26T03:10:24.303Z,86.51
2019-06-26T03:11:24.290Z,86.91
2019-06-26T03:12:24.260Z,86.91
2019-06-26T03:13:24.259Z,87.21
2019-06-26T03:14:24.268Z,87.35
2019-06-26T03:15:24.239Z,87.35
2019-06-26T03:16:24.248Z,87.65
2019-06-26T03:17:24.212Z,87.75
2019-06-26T03:18:24.212Z,87.65
2019-06-26T03:19:24.189Z,87.95
2019-06-26T03:20:24.199Z,87.75
2019-06-26T03:21:24.177Z,88.05
2019-06-26T03:22:24.163Z,87.95
2019-06-26T03:23:24.163Z,88.35
2019-06-26T03:24:24.139Z,88.45
2019-06-26T03:25:24.141Z,88.75
2019-06-26T03:26:24.141Z,88.59
2019-06-26T03:27:24.100Z,88.79
2019-06-26T03:28:24.111Z,88.89
2019-06-26T03:29:24.084Z,89.09
2019-06-26T03:30:24.242Z,88.89
2019-06-26T03:31:24.068Z,89.39
2019-06-26T03:32:24.058Z,89.29
2019-06-26T03:33:24.056Z,89.59
2019-06-26T03:34:24.041Z,89.69
2019-06-26T03:35:24.033Z,89.49
2019-06-26T03:36:24.040Z,89.59
2019-06-26T03:37:24.002Z,89.89
2019-06-26T03:38:24.006Z,89.99
2019-06-26T03:39:23.979Z,89.89
2019-06-26T03:40:23.966Z,90.29
2019-06-26T03:41:24.020Z,90.19
2019-06-26T03:42:23.961Z,89.89
2019-06-26T03:43:23.952Z,89.79
2019-06-26T03:44:23.929Z,90.59
2019-06-26T03:45:26.298Z,90.59
2019-06-26T03:46:23.935Z,90.69
2019-06-26T03:47:23.912Z,90.69
2019-06-26T03:48:23.878Z,90.89
2019-06-26T03:49:23.876Z,90.89
2019-06-26T03:50:23.860Z,90.29
2019-06-26T03:51:23.859Z,90.59
2019-06-26T03:52:23.865Z,90.59
2019-06-26T03:53:23.833Z,90.39
2019-06-26T03:54:23.813Z,90.29
2019-06-26T03:55:23.804Z,90.29
2019-06-26T03:56:23.804Z,90.39
2019-06-26T03:57:23.790Z,90.29
2019-06-26T03:58:23.792Z,90.39
2019-06-26T03:59:23.786Z,90.29
2019-06-26T04:00:23.784Z,90.49
2019-06-26T04:01:23.745Z,90.39
2019-06-26T04:02:23.735Z,90.69
2019-06-26T04:03:23.771Z,90.89
2019-06-26T04:04:23.724Z,90.89
2019-06-26T04:05:25.154Z,91.19
2019-06-26T04:06:23.693Z,91.19
2019-06-26T04:07:23.683Z,91.39
2019-06-26T04:08:23.664Z,91.49
2019-06-26T04:09:23.680Z,91.19
2019-06-26T04:10:23.658Z,90.49
2019-06-26T04:11:23.634Z,90.49
2019-06-26T04:12:23.636Z,89.69
2019-06-26T04:13:23.616Z,89.55
2019-06-26T04:14:23.612Z,89.45
2019-06-26T04:15:23.625Z,89.45
2019-06-26T04:16:23.573Z,88.81
2019-06-26T04:17:23.571Z,89.11
2019-06-26T04:18:23.557Z,88.40
2019-06-26T04:19:23.554Z,88.10
2019-06-26T04:20:23.548Z,87.91
2019-06-26T04:21:23.545Z,87.57
2019-06-26T04:22:23.524Z,87.16
2019-06-26T04:23:23.580Z,86.93
2019-06-26T04:24:23.503Z,86.72
2019-06-26T04:25:23.505Z,86.33
2019-06-26T04:26:23.498Z,86.13
2019-06-26T04:27:23.464Z,85.78
2019-06-26T04:28:24.546Z,85.88
2019-06-26T04:29:23.432Z,85.25
2019-06-26T04:30:23.457Z,84.75
2019-06-26T04:31:23.435Z,84.65
2019-06-26T04:32:23.436Z,84.51
2019-06-26T04:33:23.396Z,84.51
2019-06-26T04:34:23.385Z,84.61
2019-06-26T04:35:23.379Z,84.21
2019-06-26T04:36:23.362Z,84.41
2019-06-26T04:37:23.373Z,84.51
2019-06-26T04:38:23.345Z,84.31
2019-06-26T04:39:23.347Z,84.51
2019-06-26T04:40:23.328Z,84.67
2019-06-26T04:41:23.306Z,84.47
2019-06-26T04:42:23.323Z,84.67
2019-06-26T04:43:24.115Z,84.67
2019-06-26T04:44:23.283Z,84.77
2019-06-26T04:45:23.274Z,84.47
2019-06-26T04:46:23.263Z,84.27
2019-06-26T04:47:23.252Z,84.33
2019-06-26T04:48:23.259Z,84.33
2019-06-26T04:49:23.253Z,84.23
2019-06-26T04:50:23.206Z,84.13
2019-06-26T04:51:23.216Z,84.13
2019-06-26T04:52:23.206Z,84.13
2019-06-26T04:53:23.177Z,84.09
2019-06-26T04:54:23.191Z,83.99
2019-06-26T04:55:24.135Z,83.99
2019-06-26T04:56:23.481Z,83.99
2019-06-26T04:57:23.854Z,84.29
2019-06-26T04:58:23.254Z,84.58
2019-06-26T04:59:24.954Z,84.48
2019-06-26T05:00:27.005Z,84.69
2019-06-26T05:01:25.992Z,84.29
2019-06-26T05:02:24.102Z,84.39
2019-06-26T05:03:23.090Z,84.39
2019-06-26T05:04:23.081Z,83.89
2019-06-26T05:05:38.202Z,83.99
2019-06-26T05:06:24.075Z,84.15
2019-06-26T05:07:23.028Z,83.85
2019-06-26T05:08:23.030Z,84.05
2019-06-26T05:09:23.027Z,83.75
2019-06-26T05:10:23.032Z,83.65
2019-06-26T05:11:23.011Z,83.95
2019-06-26T05:12:23.012Z,83.85
2019-06-26T05:13:22.988Z,83.95
2019-06-26T05:14:23.407Z,83.75
2019-06-26T05:15:22.960Z,83.55
2019-06-26T05:16:22.976Z,83.45
2019-06-26T05:17:22.944Z,83.51
2019-06-26T05:18:22.923Z,83.31
2019-06-26T05:19:22.897Z,83.71
2019-06-26T05:20:22.885Z,83.71
2019-06-26T05:21:22.922Z,83.41
2019-06-26T05:22:22.914Z,83.41
2019-06-26T05:23:22.856Z,83.81
2019-06-26T05:24:22.898Z,83.01
2019-06-26T05:25:22.837Z,83.11
2019-06-26T05:26:22.847Z,83.51
2019-06-26T05:27:22.834Z,83.31
2019-06-26T05:28:22.809Z,83.21
2019-06-26T05:29:22.808Z,83.41
2019-06-26T05:30:22.786Z,83.41
2019-06-26T05:31:22.795Z,83.01
2019-06-26T05:32:22.790Z,83.01
2019-06-26T05:33:22.750Z,82.81
2019-06-26T05:34:22.790Z,83.01
2019-06-26T05:35:22.727Z,82.92
2019-06-26T05:36:22.730Z,82.92
2019-06-26T05:37:22.709Z,82.92
2019-06-26T05:38:22.722Z,82.97
2019-06-26T05:39:22.688Z,83.37
2019-06-26T05:40:22.697Z,82.68
2019-06-26T05:41:22.660Z,82.87
2019-06-26T05:42:22.656Z,82.68
2019-06-26T05:43:22.667Z,82.87
2019-06-26T05:44:22.629Z,82.28
2019-06-26T05:45:22.628Z,82.24
2019-06-26T05:46:30.871Z,80.87
2019-06-26T05:47:23.598Z,78.91
2019-06-26T05:48:22.618Z,77.34
2019-06-26T05:49:22.608Z,76.22
2019-06-26T05:50:22.568Z,75.63
2019-06-26T05:51:22.565Z,75.49
2019-06-26T05:52:22.555Z,75.20
2019-06-26T05:53:22.548Z,74.80
2019-06-26T05:54:22.541Z,74.96
2019-06-26T05:55:22.536Z,75.06
2019-06-26T05:56:22.531Z,74.70
2019-06-26T05:57:22.504Z,75.39
2019-06-26T05:58:22.480Z,75.52
2019-06-26T05:59:22.470Z,76.81
2019-06-26T06:00:22.460Z,76.85
2019-06-26T06:01:22.449Z,76.65
2019-06-26T06:02:22.459Z,77.25
2019-06-26T06:03:22.431Z,76.85
2019-06-26T06:04:22.570Z,77.09
2019-06-26T06:05:22.452Z,77.64
2019-06-26T06:06:22.484Z,77.05
2019-06-26T06:07:22.863Z,76.85
2019-06-26T06:08:23.362Z,77.05
2019-06-26T06:09:23.466Z,77.25
2019-06-26T06:10:22.767Z,77.05
2019-06-26T06:11:22.359Z,76.89
2019-06-26T06:12:22.377Z,77.28
2019-06-26T06:13:22.330Z,77.48
2019-06-26T06:14:22.312Z,78.08
2019-06-26T06:15:22.316Z,77.48
2019-06-26T06:16:22.316Z,77.68
2019-06-26T06:17:22.941Z,78.02
2019-06-26T06:18:23.532Z,77.82
2019-06-26T06:19:22.484Z,78.22
2019-06-26T06:20:22.283Z,79.01
2019-06-26T06:21:22.247Z,77.72
2019-06-26T06:22:22.709Z,77.62
2019-06-26T06:23:22.229Z,78.31
2019-06-26T06:24:22.319Z,77.72
2019-06-26T06:25:22.429Z,78.45
2019-06-26T06:26:22.438Z,78.95
2019-06-26T06:27:22.518Z,78.25
2019-06-26T06:28:22.231Z,78.75
2019-06-26T06:29:22.181Z,78.95
2019-06-26T06:30:22.173Z,78.75
2019-06-26T06:31:23.075Z,79.14
2019-06-26T06:32:22.120Z,78.02
2019-06-26T06:33:22.792Z,77.92
2019-06-26T06:34:22.133Z,77.92
2019-06-26T06:35:22.462Z,77.72
2019-06-26T06:36:22.184Z,77.42
2019-06-26T06:37:22.403Z,77.72
2019-06-26T06:38:22.077Z,78.22
2019-06-26T06:39:22.062Z,78.71
2019-06-26T06:40:22.054Z,77.58
2019-06-26T06:41:22.037Z,76.79
2019-06-26T06:42:22.014Z,77.09
2019-06-26T06:43:22.023Z,77.19
2019-06-26T06:44:22.024Z,76.69
2019-06-26T06:45:21.984Z,76.49
2019-06-26T06:46:22.007Z,76.92
2019-06-26T06:47:21.962Z,77.82
2019-06-26T06:48:21.953Z,76.82
2019-06-26T06:49:21.961Z,76.97
2019-06-26T06:50:21.929Z,77.26
2019-06-26T06:51:21.962Z,77.95
2019-06-26T06:52:21.913Z,77.95
2019-06-26T06:53:21.903Z,77.22
2019-06-26T06:54:21.935Z,77.42
2019-06-26T06:55:21.882Z,77.12
2019-06-26T06:56:21.885Z,76.92
2019-06-26T06:57:21.863Z,76.53
2019-06-26T06:58:21.850Z,76.99
2019-06-26T06:59:21.873Z,76.39
2019-06-26T07:00:21.831Z,76.20
2019-06-26T07:01:21.835Z,75.99
2019-06-26T07:02:21.812Z,76.59
2019-06-26T07:03:21.793Z,75.76
2019-06-26T07:04:21.793Z,75.56
2019-06-26T07:05:21.774Z,76.85
2019-06-26T07:06:21.763Z,75.86
2019-06-26T07:07:21.765Z,75.96
2019-06-26T07:08:21.742Z,75.56
2019-06-26T07:09:21.727Z,75.27
2019-06-26T07:10:21.724Z,74.77
2019-06-26T07:11:21.717Z,75.33
2019-06-26T07:12:21.765Z,74.54
2019-06-26T07:13:21.685Z,75.03
2019-06-26T07:14:21.687Z,74.04
2019-06-26T07:15:21.687Z,74.14
2019-06-26T07:16:21.661Z,74.84
2019-06-26T07:17:21.686Z,74.63
2019-06-26T07:18:21.636Z,74.10
2019-06-26T07:19:21.657Z,74.60
2019-06-26T07:20:21.618Z,73.81
2019-06-26T07:21:21.604Z,73.71
2019-06-26T07:22:21.594Z,73.41
2019-06-26T07:23:21.584Z,73.61
2019-06-26T07:24:21.575Z,73.71
2019-06-26T07:25:21.598Z,73.71
2019-06-26T07:26:21.556Z,73.91
2019-06-26T07:27:21.544Z,73.11
2019-06-26T07:28:21.621Z,73.51
2019-06-26T07:29:21.525Z,73.81
2019-06-26T07:30:21.568Z,74.40
2019-06-26T07:31:21.498Z,73.32
2019-06-26T07:32:21.502Z,73.11
2019-06-26T07:33:21.507Z,73.22
2019-06-26T07:34:21.521Z,73.28
2019-06-26T07:35:21.465Z,72.59
2019-06-26T07:36:21.546Z,72.69
2019-06-26T07:37:21.444Z,71.80
2019-06-26T07:38:21.428Z,72.49
2019-06-26T07:39:21.498Z,72.49
2019-06-26T07:40:21.436Z,72.69
2019-06-26T07:41:21.418Z,73.97
2019-06-26T07:42:21.397Z,73.18
2019-06-26T07:43:21.404Z,72.95
2019-06-26T07:44:21.366Z,73.34
2019-06-26T07:45:24.040Z,72.35
2019-06-26T07:46:21.361Z,71.76
2019-06-26T07:47:23.495Z,71.86
2019-06-26T07:48:22.326Z,72.16
2019-06-26T07:49:21.309Z,72.65
2019-06-26T07:50:21.297Z,72.22
2019-06-26T07:51:21.331Z,70.84
2019-06-26T07:52:21.347Z,72.42
2019-06-26T07:53:22.348Z,70.04
2019-06-26T07:54:21.270Z,71.23
2019-06-26T07:55:21.258Z,71.43
2019-06-26T07:56:21.249Z,70.84
2019-06-26T07:57:21.254Z,70.74
2019-06-26T07:58:21.216Z,70.51
2019-06-26T07:59:21.200Z,70.01
2019-06-26T08:00:21.246Z,70.37
2019-06-26T08:01:21.181Z,69.49
2019-06-26T08:02:21.174Z,69.19
2019-06-26T08:03:21.200Z,68.79
2019-06-26T08:04:21.169Z,68.86
2019-06-26T08:05:21.519Z,68.60
2019-06-26T08:06:21.542Z,68.99
2019-06-26T08:07:21.645Z,68.20
2019-06-26T08:08:21.682Z,68.79
2019-06-26T08:09:21.096Z,69.59
2019-06-26T08:10:21.088Z,68.37
2019-06-26T08:11:21.078Z,69.45
2019-06-26T08:12:21.070Z,68.96
2019-06-26T08:13:21.153Z,68.27
2019-06-26T08:14:21.280Z,68.57
2019-06-26T08:15:21.052Z,67.87
2019-06-26T08:16:21.032Z,67.38
2019-06-26T08:17:21.022Z,68.46
2019-06-26T08:18:21.015Z,67.87
2019-06-26T08:19:20.991Z,67.44
2019-06-26T08:20:21.031Z,65.97
2019-06-26T08:21:20.975Z,66.56
2019-06-26T08:22:20.980Z,66.56
2019-06-26T08:23:20.949Z,67.35
2019-06-26T08:24:20.944Z,66.75
2019-06-26T08:25:20.954Z,68.24
2019-06-26T08:26:20.923Z,66.85
2019-06-26T08:27:20.927Z,68.13
2019-06-26T08:28:20.941Z,67.44
2019-06-26T08:29:20.955Z,67.15
2019-06-26T08:30:20.919Z,65.15
2019-06-26T08:31:21.046Z,66.27
2019-06-26T08:32:20.938Z,66.16
2019-06-26T08:33:20.842Z,66.56
2019-06-26T08:34:20.899Z,65.25
2019-06-26T08:35:20.893Z,64.16
2019-06-26T08:36:20.844Z,65.25
2019-06-26T08:37:20.865Z,64.23
2019-06-26T08:38:20.805Z,64.92
2019-06-26T08:39:20.799Z,63.05
2019-06-26T08:40:20.806Z,62.03
2019-06-26T08:41:20.778Z,62.03
2019-06-26T08:42:20.766Z,62.88
2019-06-26T08:43:20.763Z,60.07
2019-06-26T08:44:20.734Z,57.24
2019-06-26T08:45:20.732Z,56.10
2019-06-26T08:46:20.713Z,55.78
2019-06-26T08:47:20.720Z,56.67
2019-06-26T08:48:38.282Z,55.16
2019-06-26T08:49:26.012Z,56.56
2019-06-26T08:50:20.681Z,53.08
2019-06-26T08:51:20.663Z,53.15
2019-06-26T08:52:20.667Z,52.54
2019-06-26T08:53:20.662Z,53.17
2019-06-26T08:54:20.656Z,50.85
2019-06-26T08:55:20.624Z,51.46
2019-06-26T08:56:20.639Z,51.68
2019-06-26T08:57:20.627Z,51.46
2019-06-26T08:58:20.599Z,51.39
2019-06-26T08:59:20.601Z,51.32
2019-06-26T09:00:20.608Z,52.10
2019-06-26T09:01:20.582Z,50.32
2019-06-26T09:02:20.576Z,51.34
2019-06-26T09:03:20.544Z,51.63
2019-06-26T09:04:20.546Z,51.46
2019-06-26T09:05:20.569Z,49.68
2019-06-26T09:06:20.526Z,51.78
2019-06-26T09:07:20.514Z,51.49
2019-06-26T09:08:20.552Z,50.98
2019-06-26T09:09:20.511Z,51.51
2019-06-26T09:10:20.493Z,49.71
2019-06-26T09:11:20.497Z,49.71
2019-06-26T09:12:20.466Z,48.68
2019-06-26T09:13:20.459Z,48.63
2019-06-26T09:14:20.460Z,48.93
2019-06-26T09:15:20.439Z,48.44
2019-06-26T09:16:21.455Z,49.51
2019-06-26T09:17:20.424Z,49.10
2019-06-26T09:18:34.362Z,48.17
2019-06-26T09:19:21.421Z,48.00
2019-06-26T09:20:20.383Z,47.49
2019-06-26T09:21:20.390Z,46.90
2019-06-26T09:22:20.389Z,47.17
2019-06-26T09:23:20.394Z,47.97
2019-06-26T09:24:20.348Z,48.19
2019-06-26T09:25:22.460Z,47.49
2019-06-26T09:26:20.354Z,47.97
2019-06-26T09:27:20.319Z,47.66
2019-06-26T09:28:20.326Z,46.88
2019-06-26T09:29:23.688Z,47.63
2019-06-26T09:30:20.320Z,47.13
2019-06-26T09:31:20.317Z,46.81
2019-06-26T09:32:20.309Z,46.13
2019-06-26T09:33:20.279Z,45.89
2019-06-26T09:34:20.259Z,46.30
2019-06-26T09:35:20.250Z,45.45
2019-06-26T09:36:21.084Z,46.61
2019-06-26T09:37:20.249Z,46.15
2019-06-26T09:38:20.247Z,46.73
2019-06-26T09:39:20.245Z,46.37
2019-06-26T09:40:20.243Z,46.30
2019-06-26T09:41:20.217Z,47.51
2019-06-26T09:42:20.191Z,46.63
2019-06-26T09:43:20.224Z,47.85
2019-06-26T09:44:20.186Z,44.90
2019-06-26T09:45:20.176Z,46.44
2019-06-26T09:46:21.253Z,43.54
2019-06-26T09:47:20.150Z,44.01
2019-06-26T09:48:20.155Z,45.57
2019-06-26T09:49:20.133Z,43.33
2019-06-26T09:50:20.273Z,44.64
2019-06-26T09:51:20.135Z,45.03
2019-06-26T09:52:20.106Z,46.44
2019-06-26T09:53:20.142Z,45.87
2019-06-26T09:54:20.088Z,46.80
2019-06-26T09:55:20.081Z,45.32
2019-06-26T09:56:20.080Z,45.12
2019-06-26T09:57:20.059Z,45.39
2019-06-26T09:58:20.047Z,44.90
2019-06-26T09:59:20.038Z,45.29
2019-06-26T10:00:20.033Z,44.52
2019-06-26T10:01:20.041Z,44.05
2019-06-26T10:02:20.012Z,44.23
2019-06-26T10:03:20.021Z,44.13
2019-06-26T10:04:20.002Z,45.00
2019-06-26T10:05:20.196Z,44.95
2019-06-26T10:06:20.022Z,45.46
2019-06-26T10:07:20.047Z,47.12
2019-06-26T10:08:19.972Z,45.56
2019-06-26T10:09:20.047Z,47.49
2019-06-26T10:10:19.949Z,46.00
2019-06-26T10:11:21.379Z,45.39
2019-06-26T10:12:20.317Z,46.73
2019-06-26T10:13:19.934Z,43.79
2019-06-26T10:14:19.932Z,44.69
2019-06-26T10:15:19.931Z,46.20
2019-06-26T10:16:19.898Z,43.48
2019-06-26T10:17:19.873Z,44.65
2019-06-26T10:18:19.899Z,45.32
2019-06-26T10:19:20.511Z,45.52
2019-06-26T10:20:20.020Z,45.28
2019-06-26T10:21:23.509Z,46.20
2019-06-26T10:22:19.820Z,44.28
2019-06-26T10:23:19.822Z,44.57
2019-06-26T10:24:19.819Z,44.26
2019-06-26T10:25:19.832Z,44.16
2019-06-26T10:26:19.799Z,44.94
2019-06-26T10:27:19.791Z,46.20
2019-06-26T10:28:20.409Z,44.72
2019-06-26T10:29:20.186Z,45.57
2019-06-26T10:30:19.913Z,42.97
2019-06-26T10:31:20.085Z,44.14
2019-06-26T10:32:20.195Z,43.29
2019-06-26T10:33:20.197Z,45.15
2019-06-26T10:34:20.579Z,45.69
2019-06-26T10:35:19.947Z,43.95
2019-06-26T10:36:23.516Z,42.68
2019-06-26T10:37:19.935Z,43.15
2019-06-26T10:38:19.795Z,43.55
2019-06-26T10:39:20.477Z,43.19
2019-06-26T10:40:20.989Z,43.89
2019-06-26T10:41:20.422Z,43.81
2019-06-26T10:42:19.908Z,44.90
2019-06-26T10:43:19.800Z,45.71
2019-06-26T10:44:19.754Z,44.97
2019-06-26T10:45:19.920Z,47.46
2019-06-26T10:46:19.855Z,48.44
2019-06-26T10:47:19.994Z,48.93
2019-06-26T10:48:19.623Z,46.80
2019-06-26T10:49:26.804Z,47.87
2019-06-26T10:50:20.586Z,48.07
2019-06-26T10:51:19.582Z,47.28
2019-06-26T10:52:19.571Z,48.77
2019-06-26T10:53:19.581Z,47.87
2019-06-26T10:54:19.525Z,47.31
2019-06-26T10:55:19.544Z,47.21
2019-06-26T10:56:19.536Z,51.03
2019-06-26T10:57:19.495Z,49.46
2019-06-26T10:58:19.493Z,47.31
2019-06-26T10:59:19.500Z,48.75
2019-06-26T11:00:19.488Z,48.38
2019-06-26T11:01:19.526Z,50.15
2019-06-26T11:02:19.908Z,48.38
2019-06-26T11:03:19.997Z,48.48
2019-06-26T11:04:20.041Z,48.38
2019-06-26T11:05:19.795Z,47.89
2019-06-26T11:06:19.663Z,49.29
2019-06-26T11:07:19.680Z,47.80
2019-06-26T11:08:20.929Z,47.67
2019-06-26T11:09:19.396Z,49.78
2019-06-26T11:10:19.403Z,46.24
2019-06-26T11:11:19.365Z,46.02
2019-06-26T11:12:20.015Z,46.80
2019-06-26T11:13:19.376Z,45.54
2019-06-26T11:14:19.397Z,46.49
2019-06-26T11:15:19.988Z,44.83
2019-06-26T11:16:19.769Z,45.95
2019-06-26T11:17:19.598Z,43.52
2019-06-26T11:18:19.425Z,43.09
2019-06-26T11:19:19.829Z,44.35
2019-06-26T11:20:19.336Z,43.65
2019-06-26T11:21:20.087Z,43.24
2019-06-26T11:22:19.694Z,41.39
2019-06-26T11:23:19.595Z,43.65
2019-06-26T11:24:19.436Z,42.97
2019-06-26T11:25:19.470Z,42.50
2019-06-26T11:26:19.495Z,41.83
2019-06-26T11:27:19.402Z,43.38
2019-06-26T11:28:19.426Z,42.87
2019-06-26T11:29:19.250Z,43.19
2019-06-26T11:30:19.198Z,43.81
2019-06-26T11:31:19.203Z,43.87
2019-06-26T11:32:19.726Z,43.96
2019-06-26T11:33:19.760Z,44.41
2019-06-26T11:34:20.084Z,42.36
2019-06-26T11:35:19.226Z,41.94
2019-06-26T11:36:19.178Z,45.26
2019-06-26T11:37:22.656Z,41.51
2019-06-26T11:38:19.165Z,42.41
2019-06-26T11:39:19.124Z,43.70
2019-06-26T11:40:19.117Z,44.30
2019-06-26T11:41:19.126Z,46.93
2019-06-26T11:42:19.093Z,44.96
2019-06-26T11:43:19.074Z,43.89
2019-06-26T11:44:19.076Z,45.29
2019-06-26T11:45:19.075Z,45.57
2019-06-26T11:46:19.075Z,45.18
2019-06-26T11:47:19.065Z,45.45
2019-06-26T11:48:19.049Z,44.98
2019-06-26T11:49:19.054Z,45.98
2019-06-26T11:50:20.902Z,47.25
2019-06-26T11:51:19.466Z,46.76
2019-06-26T11:52:19.830Z,48.29
2019-06-26T11:53:19.355Z,45.25
2019-06-26T11:54:19.250Z,44.94
2019-06-26T11:55:19.936Z,46.01
2019-06-26T11:56:19.509Z,47.39
2019-06-26T11:57:19.916Z,47.30
2019-06-26T11:58:19.090Z,45.81
2019-06-26T11:59:20.181Z,47.20
2019-06-26T12:00:19.430Z,46.51
2019-06-26T12:01:19.524Z,48.44
2019-06-26T12:02:19.319Z,47.96
2019-06-26T12:03:19.254Z,47.00
2019-06-26T12:04:19.149Z,47.00
2019-06-26T12:05:19.133Z,49.61
2019-06-26T12:06:19.765Z,47.86
2019-06-26T12:07:19.024Z,45.74
2019-06-26T12:08:19.220Z,47.32
2019-06-26T12:09:18.965Z,47.69
2019-06-26T12:10:19.098Z,47.66
2019-06-26T12:11:19.095Z,48.54
2019-06-26T12:12:19.071Z,44.55
2019-06-26T12:13:18.979Z,44.65
2019-06-26T12:14:18.923Z,46.20
2019-06-26T12:15:18.864Z,45.25
2019-06-26T12:16:18.986Z,46.83
2019-06-26T12:17:18.899Z,45.88
2019-06-26T12:18:18.922Z,46.95
2019-06-26T12:19:22.492Z,46.47
2019-06-26T12:20:19.990Z,45.47
2019-06-26T12:21:18.993Z,45.84
2019-06-26T12:22:18.973Z,45.06
2019-06-26T12:23:18.873Z,45.74
2019-06-26T12:24:18.887Z,43.09
2019-06-26T12:25:18.841Z,45.62
2019-06-26T12:26:18.911Z,42.99
2019-06-26T12:27:18.916Z,44.55
2019-06-26T12:28:19.583Z,43.95
2019-06-26T12:29:19.191Z,44.04
2019-06-26T12:30:19.320Z,42.80
2019-06-26T12:31:18.847Z,43.11
2019-06-26T12:32:19.071Z,46.03
2019-06-26T12:33:19.228Z,44.28
2019-06-26T12:34:18.985Z,45.08
2019-06-26T12:35:19.766Z,44.38
2019-06-26T12:36:18.726Z,42.80
2019-06-26T12:37:18.696Z,41.83
2019-06-26T12:38:18.798Z,41.85
2019-06-26T12:39:20.087Z,42.45
2019-06-26T12:40:19.516Z,43.23
2019-06-26T12:41:19.184Z,42.45
2019-06-26T12:42:19.637Z,42.63
2019-06-26T12:43:19.253Z,45.81
2019-06-26T12:44:18.795Z,46.90
2019-06-26T12:45:20.118Z,48.05
2019-06-26T12:46:18.608Z,43.66
2019-06-26T12:47:20.180Z,46.54
2019-06-26T12:49:11.402Z,47.05
2019-06-26T12:50:11.481Z,44.72
2019-06-26T12:55:46.793Z,46.32
2019-06-26T12:56:44.657Z,42.80
2019-06-26T12:57:43.402Z,42.82